Time;durP1;ratioP1;P1;durP2;ratioP2;P2;SDS_P1;SDS_P2;PMS_P1;PMS_P2;Temp;Humidity;BMP_temperature;BMP_pressure;BME280_temperature;BME280_humidity;BME280_pressure;Samples;Min_cycle;Max_cycle;Signal;HPM_P1;HPM_P2
2021/04/14 00:00:05;;;;;;;6.00;1.90;;;3.10;94.10;;;;;;4997933;28;20061;-84
2021/04/14 00:02:31;;;;;;;4.67;1.10;;;3.10;94.40;;;;;;4978889;28;20069;-85
2021/04/14 00:04:56;;;;;;;3.57;1.20;;;3.10;93.60;;;;;;4979246;28;20065;-84
2021/04/14 00:07:22;;;;;;;4.67;1.57;;;3.10;93.80;;;;;;4979348;28;20491;-84
2021/04/14 00:09:47;;;;;;;3.60;1.33;;;3.10;93.90;;;;;;4979960;28;20053;-83
2021/04/14 00:12:14;;;;;;;4.23;1.40;;;3.00;93.90;;;;;;4979539;28;20030;-84
2021/04/14 00:14:39;;;;;;;5.77;1.33;;;3.00;94.10;;;;;;4979047;28;20117;-83
2021/04/14 00:17:06;;;;;;;4.20;1.20;;;2.90;94.00;;;;;;4979369;28;20049;-84
2021/04/14 00:19:32;;;;;;;3.73;1.33;;;2.90;94.20;;;;;;4997035;28;20034;-83
2021/04/14 00:21:59;;;;;;;3.73;1.60;;;2.90;94.60;;;;;;4996596;28;20479;-83
2021/04/14 00:24:24;;;;;;;4.73;1.40;;;2.90;95.00;;;;;;4979946;28;20030;-85
2021/04/14 00:26:50;;;;;;;5.47;1.77;;;2.90;95.70;;;;;;4978997;28;20033;-85
2021/04/14 00:29:16;;;;;;;4.13;1.43;;;2.90;95.50;;;;;;4996223;28;20019;-83
2021/04/14 00:31:42;;;;;;;4.17;1.50;;;2.90;96.90;;;;;;4996214;28;20386;-83
2021/04/14 00:34:14;;;;;;;4.77;1.40;;;3.00;96.90;;;;;;4978627;28;20534;-84
2021/04/14 00:36:44;;;;;;;4.85;1.73;;;3.00;97.20;;;;;;4979124;28;20026;-84
2021/04/14 00:39:14;;;;;;;4.90;1.60;;;3.00;99.30;;;;;;4996831;28;20086;-83
2021/04/14 00:41:40;;;;;;;4.20;1.73;;;3.00;99.90;;;;;;4980011;28;20030;-84
2021/04/14 00:44:06;;;;;;;6.27;1.60;;;3.00;99.90;;;;;;4996673;28;20081;-83
2021/04/14 00:46:31;;;;;;;3.27;1.40;;;3.00;99.90;;;;;;4979656;28;20177;-84
2021/04/14 00:48:57;;;;;;;3.57;1.60;;;2.90;99.90;;;;;;4979517;28;20030;-84
2021/04/14 00:51:23;;;;;;;3.87;1.43;;;2.90;99.90;;;;;;4979887;28;20022;-85
2021/04/14 00:53:49;;;;;;;6.63;2.23;;;2.80;99.90;;;;;;4996358;28;20142;-83
2021/04/14 00:56:15;;;;;;;5.47;1.73;;;2.80;99.90;;;;;;4979275;28;20086;-83
2021/04/14 00:58:41;;;;;;;5.17;1.57;;;2.80;99.90;;;;;;4978942;28;20034;-85
2021/04/14 01:01:07;;;;;;;5.57;1.70;;;2.70;99.90;;;;;;4995566;28;20026;-84
2021/04/14 01:03:35;;;;;;;4.47;1.53;;;2.70;99.90;;;;;;4977691;28;20125;-83
2021/04/14 01:06:13;;;;;;;4.73;1.57;;;2.70;99.90;;;;;;5013061;28;20118;-86
2021/04/14 01:08:39;;;;;;;4.50;1.60;;;2.70;99.90;;;;;;5007332;28;20109;-84
2021/04/14 01:11:11;;;;;;;4.63;1.90;;;2.70;99.90;;;;;;4981100;28;20490;-84
2021/04/14 01:13:37;;;;;;;;;;;2.60;99.90;;;;;;4980390;28;20089;-83
2021/04/14 01:16:05;;;;;;;4.80;1.73;;;2.60;99.90;;;;;;4983095;28;20448;-83
2021/04/14 01:18:33;;;;;;;4.10;1.63;;;2.60;99.90;;;;;;4984333;28;20027;-83
2021/04/14 01:21:01;;;;;;;5.27;1.90;;;2.60;99.90;;;;;;4983347;28;20022;-84
2021/04/14 01:23:30;;;;;;;5.93;2.03;;;2.50;99.90;;;;;;5001815;28;20018;-84
2021/04/14 01:25:56;;;;;;;6.03;2.10;;;2.50;99.90;;;;;;4982684;28;20018;-86
2021/04/14 01:28:28;;;;;;;4.93;2.10;;;2.40;99.90;;;;;;4983375;28;20545;-85
2021/04/14 01:30:54;;;;;;;5.53;2.35;;;2.40;99.90;;;;;;4984533;28;20098;-85
2021/04/14 01:33:21;;;;;;;5.40;1.83;;;2.40;99.90;;;;;;4990612;28;20037;-84
2021/04/14 01:35:47;;;;;;;5.93;2.50;;;2.30;99.90;;;;;;4983906;28;20027;-85
2021/04/14 01:38:12;;;;;;;6.87;3.13;;;2.30;99.90;;;;;;4983858;28;20022;-86
2021/04/14 01:40:38;;;;;;;8.87;3.20;;;2.30;99.90;;;;;;4983633;28;20069;-86
2021/04/14 01:43:05;;;;;;;7.83;2.97;;;2.30;99.90;;;;;;5015845;23;20037;-82
2021/04/14 01:45:37;;;;;;;6.93;3.43;;;2.30;99.90;;;;;;5021536;28;20087;-83
2021/04/14 01:48:04;;;;;;;7.47;2.75;;;2.20;99.90;;;;;;5020411;28;20470;-83
2021/04/14 01:50:30;;;;;;;6.23;3.10;;;2.30;99.90;;;;;;5021803;28;20044;-81
2021/04/14 01:52:56;;;;;;;8.80;3.50;;;2.20;99.90;;;;;;5022031;28;20042;-83
2021/04/14 01:55:25;;;;;;;6.37;3.13;;;2.20;99.90;;;;;;5012167;28;20019;-81
2021/04/14 01:57:51;;;;;;;7.23;3.50;;;2.20;99.90;;;;;;5006600;28;20030;-83
2021/04/14 02:00:25;;;;;;;6.67;3.00;;;2.10;99.90;;;;;;5013550;28;20136;-85
2021/04/14 02:02:51;;;;;;;8.20;2.67;;;2.10;99.90;;;;;;5026152;28;20030;-83
2021/04/14 02:05:20;;;;;;;7.53;3.43;;;2.10;99.90;;;;;;5028737;28;20395;-82
2021/04/14 02:07:49;;;;;;;6.73;3.10;;;2.10;99.90;;;;;;5021563;28;20033;-82
2021/04/14 02:10:15;;;;;;;7.63;3.23;;;2.00;99.90;;;;;;5023143;28;20029;-83
2021/04/14 02:12:42;;;;;;;9.90;3.67;;;2.00;99.90;;;;;;5022655;28;20049;-83
2021/04/14 02:15:18;;;;;;;6.27;3.23;;;1.90;99.90;;;;;;5021910;28;20461;-83
2021/04/14 02:17:43;;;;;;;6.67;3.07;;;1.90;99.90;;;;;;5020656;28;20029;-84
2021/04/14 02:20:13;;;;;;;10.03;4.00;;;1.90;99.90;;;;;;5010400;28;20026;-85
2021/04/14 02:22:39;;;;;;;7.87;3.90;;;1.90;99.90;;;;;;5021011;28;20069;-83
2021/04/14 02:25:11;;;;;;;8.80;4.50;;;1.80;99.90;;;;;;5018895;28;20052;-82
2021/04/14 02:27:37;;;;;;;9.98;4.40;;;1.80;99.90;;;;;;5019865;28;20137;-82
2021/04/14 02:30:28;;;;;;;9.73;4.00;;;1.80;99.90;;;;;;5019855;28;20479;-84
2021/04/14 02:32:54;;;;;;;11.83;4.30;;;1.80;99.90;;;;;;5013611;28;20583;-84
2021/04/14 02:35:23;;;;;;;9.10;3.87;;;1.80;99.90;;;;;;5000800;28;20076;-82
2021/04/14 02:37:48;;;;;;;7.50;3.60;;;1.80;99.90;;;;;;4999809;28;20020;-82
2021/04/14 02:40:15;;;;;;;6.20;2.77;;;1.80;99.90;;;;;;5000275;28;20037;-83
2021/04/14 02:42:41;;;;;;;5.70;2.77;;;1.70;99.90;;;;;;5016258;28;20109;-84
2021/04/14 02:45:12;;;;;;;9.50;3.90;;;1.70;99.90;;;;;;5019863;28;20028;-82
2021/04/14 02:47:38;;;;;;;9.63;3.87;;;1.70;99.90;;;;;;5020649;28;20029;-83
2021/04/14 02:50:06;;;;;;;9.53;4.33;;;1.70;99.90;;;;;;5020168;28;20450;-84
2021/04/14 02:52:32;;;;;;;5.93;3.00;;;1.60;99.90;;;;;;5021273;28;20022;-85
2021/04/14 02:55:00;;;;;;;6.97;2.63;;;1.60;99.90;;;;;;5020198;28;20033;-84
2021/04/14 02:57:26;;;;;;;6.97;2.63;;;1.60;99.90;;;;;;5022041;28;20131;-84
2021/04/14 02:59:53;;;;;;;6.27;2.57;;;1.60;99.90;;;;;;5009363;28;20030;-82
2021/04/14 03:02:23;;;;;;;6.60;2.57;;;1.60;99.90;;;;;;5021564;28;20048;-83
2021/04/14 03:04:49;;;;;;;7.80;2.93;;;1.60;99.90;;;;;;5022712;28;20026;-82
2021/04/14 03:07:15;;;;;;;6.53;2.50;;;1.60;99.90;;;;;;5024238;28;20026;-83
2021/04/14 03:09:40;;;;;;;5.93;2.40;;;1.60;99.90;;;;;;5022017;28;20048;-84
2021/04/14 03:12:08;;;;;;;6.30;2.57;;;1.60;99.90;;;;;;5021242;28;20474;-82
2021/04/14 03:14:34;;;;;;;4.57;2.00;;;1.60;99.90;;;;;;5015870;28;20098;-82
2021/04/14 03:17:00;;;;;;;6.90;3.03;;;1.50;99.90;;;;;;5005164;28;20058;-83
2021/04/14 03:19:26;;;;;;;6.60;2.47;;;1.50;99.90;;;;;;5012027;28;20566;-84
2021/04/14 03:21:52;;;;;;;5.77;2.20;;;1.50;99.90;;;;;;5013670;28;20037;-82
2021/04/14 03:24:21;;;;;;;8.27;3.03;;;1.50;99.90;;;;;;5015264;28;20022;-84
2021/04/14 03:26:46;;;;;;;7.17;3.10;;;1.50;99.90;;;;;;5013462;28;20049;-84
2021/04/14 03:29:12;;;;;;;7.23;2.93;;;1.50;99.90;;;;;;5014127;28;20125;-81
2021/04/14 03:31:40;;;;;;;6.70;3.00;;;1.40;99.90;;;;;;5014872;28;20052;-84
2021/04/14 03:34:06;;;;;;;7.20;2.60;;;1.40;99.90;;;;;;5014500;28;20022;-83
2021/04/14 03:36:32;;;;;;;8.00;3.20;;;1.40;99.90;;;;;;5014369;28;20025;-84
2021/04/14 03:38:58;;;;;;;6.60;2.83;;;1.40;99.90;;;;;;5013700;28;20486;-84
2021/04/14 03:41:27;;;;;;;5.30;2.70;;;1.40;99.90;;;;;;5013130;28;20099;-84
2021/04/14 03:43:54;;;;;;;7.17;3.33;;;1.40;99.90;;;;;;5013035;28;20030;-84
2021/04/14 03:46:21;;;;;;;4.97;2.50;;;1.40;99.90;;;;;;5015311;28;20029;-83
2021/04/14 03:48:47;;;;;;;5.47;2.40;;;1.30;99.90;;;;;;5014958;28;20053;-84
2021/04/14 03:51:13;;;;;;;4.60;1.83;;;1.30;99.90;;;;;;5013571;28;20034;-83
2021/04/14 03:53:39;;;;;;;6.43;2.37;;;1.30;99.90;;;;;;5015762;28;20125;-84
2021/04/14 03:56:07;;;;;;;5.70;2.80;;;1.20;99.90;;;;;;5014214;28;20034;-85
2021/04/14 03:58:35;;;;;;;4.90;2.30;;;1.20;99.90;;;;;;5013847;28;20026;-84
2021/04/14 04:01:07;;;;;;;5.73;2.57;;;1.10;99.90;;;;;;5014296;28;20481;-83
2021/04/14 04:03:33;;;;;;;6.43;2.17;;;1.20;99.90;;;;;;5014078;28;20022;-86
2021/04/14 04:05:59;;;;;;;7.17;2.20;;;1.10;99.90;;;;;;5015256;28;20029;-83
2021/04/14 04:08:24;;;;;;;8.07;2.80;;;1.10;99.90;;;;;;5013521;28;20040;-83
2021/04/14 04:10:50;;;;;;;6.53;2.50;;;1.10;99.90;;;;;;5002789;28;20029;-83
2021/04/14 04:13:16;;;;;;;9.00;3.60;;;1.10;99.90;;;;;;5015269;28;20041;-84
2021/04/14 04:15:43;;;;;;;9.13;3.90;;;1.10;99.90;;;;;;5014410;28;20022;-83
2021/04/14 04:18:08;;;;;;;8.23;4.03;;;1.10;99.90;;;;;;5013607;28;20032;-82
2021/04/14 04:20:35;;;;;;;7.87;4.30;;;1.10;99.90;;;;;;5016302;28;20029;-83
2021/04/14 04:23:05;;;;;;;9.73;4.43;;;1.10;99.90;;;;;;5014798;28;20025;-84
2021/04/14 04:25:31;;;;;;;13.20;4.70;;;1.10;99.90;;;;;;5015106;28;20057;-83
2021/04/14 04:27:58;;;;;;;9.93;4.70;;;1.10;99.90;;;;;;5015297;28;20099;-84
2021/04/14 04:30:24;;;;;;;8.77;5.00;;;1.10;99.90;;;;;;5015414;28;20022;-85
2021/04/14 04:32:50;;;;;;;11.50;4.30;;;1.10;99.90;;;;;;5014589;28;20022;-83
2021/04/14 04:35:17;;;;;;;10.70;4.37;;;1.10;99.90;;;;;;5014867;28;20061;-84
2021/04/14 04:37:42;;;;;;;10.60;4.63;;;1.10;99.90;;;;;;5009864;28;20026;-84
2021/04/14 04:40:09;;;;;;;11.00;4.37;;;1.10;99.90;;;;;;5014827;28;20509;-85
2021/04/14 04:42:35;;;;;;;10.70;5.30;;;1.00;99.90;;;;;;5014905;28;20034;-85
2021/04/14 04:45:01;;;;;;;8.47;4.60;;;1.00;99.90;;;;;;5016242;28;20040;-82
2021/04/14 04:47:27;;;;;;;10.57;5.37;;;1.00;99.90;;;;;;5016173;28;20100;-85
2021/04/14 04:49:55;;;;;;;9.57;5.03;;;1.00;99.90;;;;;;5015051;28;20022;-84
2021/04/14 04:52:21;;;;;;;9.97;5.53;;;0.90;99.90;;;;;;5018863;28;20018;-82
2021/04/14 04:54:46;;;;;;;9.33;4.73;;;0.90;99.90;;;;;;5014936;28;20030;-85
2021/04/14 04:57:12;;;;;;;8.97;4.53;;;1.00;99.90;;;;;;5017917;28;20026;-86
2021/04/14 04:59:38;;;;;;;10.43;4.60;;;1.00;99.90;;;;;;5018502;28;20042;-84
2021/04/14 05:02:04;;;;;;;11.27;6.33;;;1.00;99.90;;;;;;5018174;28;20026;-83
2021/04/14 05:04:32;;;;;;;15.63;4.53;;;1.00;99.90;;;;;;5002178;28;20037;-83
2021/04/14 05:06:58;;;;;;;14.83;5.20;;;1.10;99.90;;;;;;5017922;28;20029;-85
2021/04/14 05:09:25;;;;;;;9.30;4.53;;;1.10;99.90;;;;;;5018706;28;20037;-84
2021/04/14 05:11:50;;;;;;;11.03;4.70;;;1.20;99.90;;;;;;5017745;28;20114;-84
2021/04/14 05:14:16;;;;;;;9.97;5.20;;;1.20;99.90;;;;;;5014692;28;20060;-84
2021/04/14 05:16:42;;;;;;;9.83;3.70;;;1.30;99.90;;;;;;5017375;28;20470;-84
2021/04/14 05:19:08;;;;;;;8.97;4.50;;;1.30;99.90;;;;;;5016985;28;20061;-84
2021/04/14 05:21:37;;;;;;;9.57;4.07;;;1.40;99.90;;;;;;5013356;28;20037;-83
2021/04/14 05:24:03;;;;;;;9.70;4.30;;;1.50;99.90;;;;;;5015270;28;20065;-85
2021/04/14 05:26:28;;;;;;;10.03;4.53;;;1.50;99.90;;;;;;5015511;28;20044;-84
2021/04/14 05:28:54;;;;;;;8.00;4.20;;;1.60;99.90;;;;;;5015416;28;20030;-83
2021/04/14 05:31:20;;;;;;;8.63;3.63;;;1.60;99.90;;;;;;5009511;28;20065;-82
2021/04/14 05:33:46;;;;;;;11.33;4.47;;;1.70;99.90;;;;;;5015266;28;20113;-85
2021/04/14 05:36:13;;;;;;;10.23;5.03;;;1.70;99.90;;;;;;5016617;28;20034;-83
2021/04/14 05:38:38;;;;;;;9.53;4.13;;;1.80;99.90;;;;;;5011701;28;20029;-82
2021/04/14 05:41:05;;;;;;;8.17;3.87;;;1.90;99.90;;;;;;5014442;28;21382;-83
2021/04/14 05:43:37;;;;;;;7.47;4.30;;;2.00;99.90;;;;;;5015976;28;20072;-80
2021/04/14 05:46:06;;;;;;;7.47;3.97;;;2.10;99.90;;;;;;5011708;28;20085;-83
2021/04/14 05:48:31;;;;;;;8.33;3.77;;;2.10;99.90;;;;;;5013422;28;20025;-82
2021/04/14 05:50:59;;;;;;;6.63;2.90;;;2.20;99.90;;;;;;5017816;28;20126;-84
2021/04/14 05:53:26;;;;;;;6.10;2.60;;;2.30;99.90;;;;;;5015981;28;20458;-84
2021/04/14 05:55:52;;;;;;;7.17;2.70;;;2.40;99.90;;;;;;5007423;28;20034;-85
2021/04/14 05:58:18;;;;;;;6.87;2.33;;;2.50;99.90;;;;;;5010972;28;20037;-85
2021/04/14 06:00:43;;;;;;;6.37;2.90;;;2.50;99.90;;;;;;5014037;28;20033;-83
2021/04/14 06:03:09;;;;;;;8.37;4.43;;;2.60;99.90;;;;;;5013650;28;20033;-84
2021/04/14 06:05:35;;;;;;;9.17;3.40;;;2.60;99.90;;;;;;5011772;28;20057;-81
2021/04/14 06:08:00;;;;;;;5.80;2.13;;;2.70;99.90;;;;;;5013141;28;20125;-83
2021/04/14 06:10:27;;;;;;;7.53;2.67;;;2.80;99.90;;;;;;5012516;28;20119;-83
2021/04/14 06:12:54;;;;;;;6.03;2.73;;;2.90;99.90;;;;;;5011770;28;20877;-82
2021/04/14 06:15:24;;;;;;;5.23;2.23;;;3.10;99.90;;;;;;5014702;28;20025;-83
2021/04/14 06:17:50;;;;;;;9.03;2.70;;;3.20;99.90;;;;;;5015988;28;20048;-84
2021/04/14 06:20:20;;;;;;;7.70;2.30;;;3.30;99.90;;;;;;5015674;28;20022;-83
2021/04/14 06:22:46;;;;;;;8.53;2.60;;;3.40;99.90;;;;;;5014909;28;20033;-83
2021/04/14 06:25:14;;;;;;;7.53;3.50;;;3.50;99.90;;;;;;5011747;28;20086;-84
2021/04/14 06:27:48;;;;;;;6.87;2.97;;;3.50;99.90;;;;;;5013345;28;20037;-84
2021/04/14 06:30:15;;;;;;;7.60;3.20;;;3.60;99.90;;;;;;5012503;28;20022;-81
2021/04/14 06:32:41;;;;;;;6.23;2.40;;;3.60;99.90;;;;;;5009838;28;20033;-80
2021/04/14 06:35:15;;;;;;;5.53;2.43;;;3.70;99.90;;;;;;5012898;28;20133;-82
2021/04/14 06:37:45;;;;;;;5.50;1.93;;;3.90;99.90;;;;;;5014798;28;20382;-84
2021/04/14 06:43:14;;;;;;;5.73;1.73;;;4.00;99.90;;;;;;5012236;28;20000;-85
2021/04/14 06:46:06;;;;;;;8.70;1.93;;;4.10;99.90;;;;;;5013724;28;20344;-83
2021/04/14 06:49:01;;;;;;;5.63;1.70;;;4.20;99.90;;;;;;5010270;28;20117;-83
2021/04/14 06:51:42;;;;;;;6.97;2.03;;;4.40;99.90;;;;;;5016486;28;20029;-84
2021/04/14 06:54:38;;;;;;;6.77;2.40;;;4.60;99.90;;;;;;5015179;28;20057;-81
2021/04/14 06:57:26;;;;;;;6.27;2.20;;;4.70;99.90;;;;;;5011650;28;20087;-82
2021/04/14 07:00:07;;;;;;;5.83;1.87;;;4.90;99.90;;;;;;5016918;28;20033;-81
2021/04/14 07:02:54;;;;;;;6.50;2.17;;;5.00;99.90;;;;;;4996970;28;20380;-82
2021/04/14 07:05:24;;;;;;;6.97;2.07;;;5.00;98.80;;;;;;5017346;28;20034;-84
2021/04/14 07:07:52;;;;;;;6.37;1.93;;;5.00;99.90;;;;;;5014986;28;20439;-84
2021/04/14 07:10:30;;;;;;;3.83;1.80;;;4.90;99.50;;;;;;5009058;28;20038;-81
2021/04/14 07:13:00;;;;;;;5.80;2.20;;;4.90;99.90;;;;;;5012218;28;20025;-83
2021/04/14 07:15:30;;;;;;;7.27;2.47;;;4.80;99.90;;;;;;5012911;28;20018;-84
2021/04/14 07:18:24;;;;;;;9.53;3.57;;;4.90;99.90;;;;;;5015109;28;20029;-84
2021/04/14 07:21:22;;;;;;;7.30;2.43;;;5.10;99.90;;;;;;5015325;28;20377;-85
2021/04/14 07:23:55;;;;;;;9.20;2.87;;;5.30;98.40;;;;;;4989285;28;20034;-84
2021/04/14 07:26:34;;;;;;;7.60;3.30;;;5.20;98.00;;;;;;5011076;28;20116;-85
2021/04/14 07:29:17;;;;;;;8.30;2.80;;;5.20;99.20;;;;;;5011340;28;20438;-85
2021/04/14 07:32:10;;;;;;;10.20;2.80;;;5.20;99.10;;;;;;5012945;28;20029;-84
2021/04/14 07:34:49;;;;;;;8.27;2.55;;;5.30;98.30;;;;;;5013017;28;20128;-85
2021/04/14 07:37:26;;;;;;;9.23;2.70;;;5.40;98.10;;;;;;5008902;28;20036;-84
2021/04/14 07:40:08;;;;;;;7.43;3.17;;;5.10;98.40;;;;;;5008282;28;20072;-86
2021/04/14 07:42:43;;;;;;;7.95;2.65;;;5.00;98.70;;;;;;5010935;28;20074;-86
2021/04/14 07:45:33;;;;;;;9.07;3.17;;;5.10;99.00;;;;;;5009265;28;20029;-84
2021/04/14 07:48:14;;;;;;;7.40;2.73;;;5.00;99.50;;;;;;5011528;28;20040;-84
2021/04/14 07:50:41;;;;;;;7.87;3.73;;;5.00;98.70;;;;;;5010764;28;20044;-85
2021/04/14 07:53:29;;;;;;;9.00;3.47;;;4.90;98.90;;;;;;5012163;28;20030;-86
2021/04/14 07:56:04;;;;;;;9.37;3.13;;;4.90;99.60;;;;;;5010525;28;20069;-86
2021/04/14 07:58:31;;;;;;;9.77;3.27;;;4.90;99.20;;;;;;5016270;28;20441;-85
2021/04/14 08:01:29;;;;;;;8.77;2.93;;;4.90;99.90;;;;;;5012810;28;20035;-85
2021/04/14 08:04:32;;;;;;;8.20;2.77;;;4.90;99.00;;;;;;5012136;28;20014;-85
2021/04/14 08:07:18;;;;;;;6.03;2.70;;;4.90;98.50;;;;;;5011644;28;20026;-87
2021/04/14 08:10:00;;;;;;;8.30;3.67;;;5.00;98.40;;;;;;5008424;28;20093;-87
2021/04/14 08:12:30;;;;;;;6.13;2.13;;;5.20;98.50;;;;;;5008361;28;20085;-84
2021/04/14 08:15:13;;;;;;;9.20;2.87;;;5.30;98.00;;;;;;5013362;28;20022;-85
2021/04/14 08:17:40;;;;;;;7.20;2.80;;;5.50;98.10;;;;;;5013855;28;20022;-87
2021/04/14 08:20:13;;;;;;;11.97;2.60;;;5.70;97.80;;;;;;5006642;28;20042;-85
2021/04/14 08:22:39;;;;;;;6.57;2.67;;;5.90;96.40;;;;;;5012051;28;20461;-86
2021/04/14 08:25:07;;;;;;;6.77;2.30;;;6.10;96.20;;;;;;5014547;28;20121;-85
2021/04/14 08:27:38;;;;;;;6.50;2.40;;;6.20;95.50;;;;;;5020542;28;20041;-88
2021/04/14 08:30:23;;;;;;;5.25;2.08;;;6.40;95.00;;;;;;5017243;28;20067;-86
2021/04/14 08:32:52;;;;;;;8.20;2.53;;;6.60;95.00;;;;;;5021466;28;20026;-86
2021/04/14 08:35:31;;;;;;;8.80;2.60;;;6.70;94.70;;;;;;5019388;28;20022;-87
2021/04/14 08:38:11;;;;;;;10.97;3.00;;;6.50;94.30;;;;;;5022225;28;20025;-88
2021/04/14 08:41:01;;;;;;;8.57;2.57;;;6.70;93.50;;;;;;5023408;28;20030;-86
2021/04/14 08:43:51;;;;;;;7.33;2.70;;;6.70;93.10;;;;;;5020714;28;20109;-87
2021/04/14 08:46:25;;;;;;;9.13;3.30;;;6.70;93.70;;;;;;5023340;28;20410;-87
2021/04/14 08:49:01;;;;;;;6.37;2.77;;;6.70;93.80;;;;;;5021141;28;20310;-87
2021/04/14 08:51:30;;;;;;;8.13;2.63;;;6.90;92.70;;;;;;5019855;28;20029;-86
2021/04/14 08:53:58;;;;;;;6.73;2.60;;;7.10;92.40;;;;;;5021441;28;20078;-91
2021/04/14 08:56:27;;;;;;;7.27;2.30;;;7.00;92.40;;;;;;5024968;28;20030;-86
2021/04/14 08:58:59;;;;;;;7.03;2.70;;;7.20;93.00;;;;;;5024201;28;20052;-86
2021/04/14 09:01:31;;;;;;;7.18;2.35;;;7.20;91.60;;;;;;5020020;28;20033;-85
2021/04/14 09:04:00;;;;;;;7.18;2.45;;;7.50;91.40;;;;;;5017077;28;20030;-86
2021/04/14 09:06:29;;;;;;;4.93;2.40;;;7.40;91.60;;;;;;5019299;28;20455;-86
2021/04/14 09:08:56;;;;;;;6.37;2.10;;;7.40;91.50;;;;;;5014675;28;20025;-87
2021/04/14 09:11:25;;;;;;;8.80;2.37;;;7.50;90.70;;;;;;5011057;28;20490;-87
2021/04/14 09:14:02;;;;;;;8.57;2.40;;;7.70;90.30;;;;;;5010269;28;20371;-86
2021/04/14 09:16:40;;;;;;;5.43;2.10;;;7.60;89.50;;;;;;5014270;28;20014;-86
2021/04/14 09:19:26;;;;;;;9.90;2.53;;;7.80;88.50;;;;;;5010573;28;20076;-86
2021/04/14 09:22:16;;;;;;;7.67;1.90;;;8.00;88.50;;;;;;5005499;28;20044;-87
2021/04/14 09:25:02;;;;;;;8.55;2.10;;;7.90;84.70;;;;;;5011218;28;20112;-85
2021/04/14 09:27:31;;;;;;;7.35;2.20;;;7.80;83.90;;;;;;5012246;28;20032;-86
2021/04/14 09:30:18;;;;;;;4.73;2.10;;;7.90;84.00;;;;;;5003769;28;20033;-85
2021/04/14 09:32:46;;;;;;;4.80;1.80;;;8.00;83.20;;;;;;5013098;28;20029;-86
2021/04/14 09:35:32;;;;;;;7.67;2.07;;;8.00;85.30;;;;;;5011586;28;20097;-86
2021/04/14 09:38:08;;;;;;;4.80;2.10;;;8.30;81.00;;;;;;5014684;28;20049;-87
2021/04/14 09:40:36;;;;;;;6.80;2.00;;;8.10;79.10;;;;;;5014536;28;20390;-86
2021/04/14 09:43:30;;;;;;;6.17;2.07;;;8.30;79.00;;;;;;4996127;28;20069;-86
2021/04/14 09:46:02;;;;;;;4.28;1.67;;;8.50;81.50;;;;;;5006234;28;20026;-88
2021/04/14 09:48:48;;;;;;;5.75;2.10;;;8.30;75.60;;;;;;5010049;28;20026;-87
2021/04/14 09:51:26;;;;;;;4.40;1.58;;;8.60;77.20;;;;;;5006263;28;20038;-86
2021/04/14 09:53:58;;;;;;;4.75;1.70;;;8.70;72.60;;;;;;5006256;28;20029;-84
2021/04/14 09:56:28;;;;;;;4.18;1.73;;;8.80;74.90;;;;;;5008791;28;20034;-87
2021/04/14 09:59:39;;;;;;;4.53;1.60;;;8.80;73.60;;;;;;5012748;28;20038;-86
2021/04/14 10:02:16;;;;;;;3.78;1.38;;;9.20;71.70;;;;;;4999585;28;20061;-87
2021/04/14 10:04:47;;;;;;;4.50;1.40;;;9.50;69.20;;;;;;4994251;28;20042;-87
2021/04/14 10:07:36;;;;;;;4.85;1.10;;;9.60;66.50;;;;;;4993608;28;20049;-86
2021/04/14 10:10:22;;;;;;;3.85;1.35;;;9.70;61.90;;;;;;5007141;28;20406;-86
2021/04/14 10:12:52;;;;;;;6.25;1.70;;;9.80;64.80;;;;;;5010740;28;20142;-86
2021/04/14 10:15:30;;;;;;;4.40;1.42;;;9.80;65.70;;;;;;5010667;28;20041;-87
2021/04/14 10:18:27;;;;;;;6.95;1.55;;;9.40;64.00;;;;;;5009447;28;20030;-88
2021/04/14 10:20:55;;;;;;;3.58;0.90;;;9.50;64.50;;;;;;5008776;28;20033;-87
2021/04/14 10:23:26;;;;;;;6.10;1.30;;;9.80;55.00;;;;;;5011316;28;20022;-87
2021/04/14 10:26:13;;;;;;;4.27;1.30;;;9.90;60.60;;;;;;5009412;28;20038;-87
2021/04/14 10:28:43;;;;;;;4.32;1.58;;;9.60;56.50;;;;;;5007574;28;20027;-87
2021/04/14 10:31:13;;;;;;;4.55;1.33;;;9.40;59.30;;;;;;5012862;28;20030;-85
2021/04/14 10:33:41;;;;;;;5.75;1.25;;;9.30;60.10;;;;;;5007299;28;20105;-87
2021/04/14 10:36:20;;;;;;;7.68;1.40;;;9.10;61.80;;;;;;5008308;28;20029;-88
2021/04/14 10:38:53;;;;;;;6.03;1.20;;;8.90;62.30;;;;;;5007244;28;20018;-89
2021/04/14 10:41:22;;;;;;;7.13;2.42;;;8.50;65.30;;;;;;5009571;28;20095;-88
2021/04/14 10:43:50;;;;;;;6.75;1.50;;;8.20;70.70;;;;;;5007177;28;20104;-88
2021/04/14 10:46:31;;;;;;;3.03;1.35;;;8.10;73.80;;;;;;5014491;28;20018;-87
2021/04/14 10:49:12;;;;;;;4.43;1.27;;;7.60;78.20;;;;;;5004854;28;20030;-88
2021/04/14 10:51:46;;;;;;;2.92;1.23;;;7.20;77.60;;;;;;5014967;28;20048;-87
2021/04/14 10:54:14;;;;;;;3.95;1.67;;;7.10;79.40;;;;;;5014981;28;20022;-88
2021/04/14 10:56:42;;;;;;;3.97;1.13;;;7.00;79.70;;;;;;5011722;28;20042;-87
2021/04/14 10:59:14;;;;;;;3.23;1.10;;;7.00;80.40;;;;;;5013124;28;20018;-87
2021/04/14 11:01:46;;;;;;;2.90;1.00;;;6.90;79.70;;;;;;5012132;28;20041;-88
2021/04/14 11:04:15;;;;;;;4.07;1.20;;;6.90;79.70;;;;;;5011228;28;20040;-88
2021/04/14 11:06:43;;;;;;;3.37;1.00;;;6.80;79.10;;;;;;5011507;28;20037;-89
2021/04/14 11:09:10;;;;;;;4.73;1.07;;;6.90;80.10;;;;;;5008865;28;20038;-89
2021/04/14 11:11:38;;;;;;;5.40;1.40;;;7.40;75.40;;;;;;5010001;28;20026;-88
2021/04/14 11:14:09;;;;;;;3.13;1.17;;;7.90;73.80;;;;;;4994849;28;20030;-88
2021/04/14 11:16:40;;;;;;;2.23;1.10;;;8.30;70.30;;;;;;5009748;28;20029;-88
2021/04/14 11:19:16;;;;;;;2.67;1.10;;;8.50;68.10;;;;;;5007970;28;20026;-88
2021/04/14 11:21:42;;;;;;;3.63;1.25;;;8.90;68.60;;;;;;5013792;28;20246;-88
2021/04/14 11:24:12;;;;;;;3.13;1.00;;;9.40;66.30;;;;;;5011742;28;20432;-87
2021/04/14 11:26:50;;;;;;;3.13;0.93;;;9.40;65.40;;;;;;5012258;28;20514;-88
2021/04/14 11:29:26;;;;;;;2.83;1.10;;;9.20;63.00;;;;;;5005483;28;20524;-86
2021/04/14 11:31:53;;;;;;;3.70;1.30;;;9.30;63.30;;;;;;5008599;28;20029;-88
2021/04/14 11:34:34;;;;;;;4.78;1.50;;;9.40;61.90;;;;;;5015048;28;20475;-88
2021/04/14 11:37:23;;;;;;;5.55;1.20;;;9.50;62.90;;;;;;5011772;28;20037;-87
2021/04/14 11:40:05;;;;;;;6.13;1.33;;;9.60;62.50;;;;;;5017070;28;20534;-87
2021/04/14 11:42:52;;;;;;;5.28;1.33;;;10.20;60.10;;;;;;5007817;28;20037;-87
2021/04/14 11:45:26;;;;;;;4.47;1.10;;;10.60;58.50;;;;;;5014507;28;20038;-89
2021/04/14 11:47:53;;;;;;;4.00;1.02;;;11.20;58.70;;;;;;5031376;28;20105;-88
2021/04/14 11:50:40;;;;;;;4.18;1.02;;;11.70;54.30;;;;;;5011731;28;20061;-87
2021/04/14 11:53:26;;;;;;;3.38;1.10;;;11.30;53.40;;;;;;5013701;28;20498;-89
2021/04/14 11:55:53;;;;;;;6.45;1.10;;;11.40;53.30;;;;;;5016650;28;20034;-89
2021/04/14 11:58:38;;;;;;;2.28;0.95;;;11.50;53.40;;;;;;5009722;28;20068;-88
2021/04/14 12:01:05;;;;;;;4.50;0.90;;;11.70;54.10;;;;;;5010699;28;20548;-88
2021/04/14 12:03:35;;;;;;;5.18;1.38;;;11.70;51.90;;;;;;5012176;28;20025;-89
2021/04/14 12:06:01;;;;;;;3.55;1.13;;;11.20;53.80;;;;;;5010463;28;20155;-88
2021/04/14 12:08:29;;;;;;;3.55;1.10;;;11.10;51.80;;;;;;5010936;28;20805;-87
2021/04/14 12:10:58;;;;;;;4.35;1.05;;;11.00;49.30;;;;;;5004487;28;20113;-87
2021/04/14 12:13:24;;;;;;;4.50;1.00;;;11.00;51.30;;;;;;5012046;28;20018;-87
2021/04/14 12:15:53;;;;;;;3.83;1.02;;;11.50;53.50;;;;;;5010399;28;20867;-88
2021/04/14 12:18:24;;;;;;;4.88;1.10;;;11.00;51.90;;;;;;5010256;28;20093;-88
2021/04/14 12:20:50;;;;;;;4.68;1.73;;;11.10;52.80;;;;;;5006744;28;20044;-88
2021/04/14 12:23:16;;;;;;;4.13;1.00;;;10.70;52.30;;;;;;5008880;28;20046;-89
2021/04/14 12:25:45;;;;;;;4.00;1.10;;;10.70;52.50;;;;;;5008434;28;20187;-87
2021/04/14 12:28:11;;;;;;;1.77;0.88;;;10.40;52.40;;;;;;5003363;28;20045;-87
2021/04/14 12:30:37;;;;;;;2.33;1.10;;;10.70;53.40;;;;;;5008106;28;20112;-87
2021/04/14 12:33:02;;;;;;;3.67;1.20;;;10.80;51.40;;;;;;5008334;28;20870;-87
2021/04/14 12:35:28;;;;;;;3.78;1.10;;;11.20;51.80;;;;;;5008473;28;20360;-87
2021/04/14 12:37:55;;;;;;;3.00;1.00;;;11.30;51.30;;;;;;5007238;28;20044;-87
2021/04/14 12:40:21;;;;;;;4.63;1.27;;;11.50;53.10;;;;;;5008237;28;20116;-88
2021/04/14 12:42:47;;;;;;;5.18;1.50;;;11.20;52.00;;;;;;5006569;28;20109;-87
2021/04/14 12:45:37;;;;;;;2.90;0.90;;;11.00;53.90;;;;;;5004161;28;20061;-88
2021/04/14 12:48:05;;;;;;;3.15;1.20;;;11.20;54.40;;;;;;5010069;28;20053;-87
2021/04/14 12:50:33;;;;;;;4.68;1.33;;;11.60;57.20;;;;;;5009043;28;20026;-86
2021/04/14 12:53:00;;;;;;;3.55;1.35;;;11.60;57.80;;;;;;5008100;28;20045;-86
2021/04/14 12:55:32;;;;;;;6.38;1.60;;;11.50;58.00;;;;;;5007015;28;20096;-88
2021/04/14 12:57:57;;;;;;;4.13;1.17;;;11.10;58.70;;;;;;5010309;28;20014;-87
2021/04/14 13:00:27;;;;;;;8.15;1.33;;;10.40;60.30;;;;;;5010494;28;20033;-86
2021/04/14 13:03:03;;;;;;;5.97;1.35;;;10.30;60.70;;;;;;5010661;28;20021;-84
2021/04/14 13:05:46;;;;;;;3.13;1.35;;;9.80;61.90;;;;;;5011545;28;20021;-85
2021/04/14 13:08:16;;;;;;;3.10;1.17;;;9.60;64.00;;;;;;5015774;28;20026;-85
2021/04/14 13:10:48;;;;;;;5.00;1.48;;;9.50;65.50;;;;;;5015741;28;20049;-86
2021/04/14 13:13:17;;;;;;;4.53;1.55;;;9.60;66.20;;;;;;5007744;28;20276;-86
2021/04/14 13:15:58;;;;;;;4.80;1.40;;;9.70;66.10;;;;;;5019330;28;20033;-85
2021/04/14 13:18:24;;;;;;;5.63;1.30;;;9.80;65.40;;;;;;5016145;28;20018;-87